PWSweather.com
Personal Weather Stations
Station Observations

ChardChardGB

Lat: 50.877408, Lon: -2.94964741

Elevation: 341

Station Type: WS3083

http://www.merriott-astro.co.uk/weather/index.htm

High Low Average
Temperature 48.7°F9.3°C 44.2°F6.8°C 45.9°F7.7°C
Dew Point 41.5°F5.3°C 38.7°F3.7°C 40.3°F4.6°C
Winds 6.7 mph 10.8 kmh Calm Calm 2.0 mph ENE3.2 kmh ENE
Wind Gusts 9.8 mph15.8 kmh -- 3.0 mph4.8 kmh
Humidity 87% 73% 81%
Pressure 28.98 in981.4 mb 28.60 in968.5 mb -
Precipitation 0.01 in0.3 mm - -
Hour Temp Dew Point Humidity Winds Wind Gusts Pressure Precip Precip Rate Daily Precip Total
12:00 AM 44.6°F7.0°C 40.1°F4.5°C 84% 2.2 mph E3.5 kmh E 2.2 mph3.5 kmh 28.60 in968.5 mb 0.00 in0.0 mm 0.00 in0.0 mm 0.00 in0.0 mm
12:10 AM 44.6°F7.0°C 40.1°F4.5°C 84% 2.2 mph E3.5 kmh E 2.2 mph3.5 kmh 28.60 in968.5 mb 0.00 in0.0 mm 0.00 in0.0 mm 0.00 in0.0 mm
12:20 AM 44.6°F7.0°C 40.1°F4.5°C 84% 2.2 mph E3.5 kmh E 2.2 mph3.5 kmh 28.60 in968.5 mb 0.00 in0.0 mm 0.00 in0.0 mm 0.00 in0.0 mm
12:30 AM 44.6°F7.0°C 40.1°F4.5°C 84% 2.2 mph E3.5 kmh E 2.2 mph3.5 kmh 28.60 in968.5 mb 0.00 in0.0 mm 0.00 in0.0 mm 0.00 in0.0 mm
12:40 AM 44.6°F7.0°C 40.1°F4.5°C 84% 2.2 mph E3.5 kmh E 2.2 mph3.5 kmh 28.61 in968.8 mb 0.00 in0.0 mm 0.00 in0.0 mm 0.00 in0.0 mm
12:50 AM 44.6°F7.0°C 40.1°F4.5°C 84% 2.2 mph E3.5 kmh E 2.2 mph3.5 kmh 28.60 in968.5 mb 0.00 in0.0 mm 0.00 in0.0 mm 0.00 in0.0 mm
01:00 AM 44.6°F7.0°C 40.1°F4.5°C 84% 2.2 mph E3.5 kmh E 2.2 mph3.5 kmh 28.61 in968.8 mb 0.00 in0.0 mm 0.00 in0.0 mm 0.00 in0.0 mm
01:10 AM 44.6°F7.0°C 40.1°F4.5°C 84% 2.2 mph E3.5 kmh E 2.2 mph3.5 kmh 28.61 in968.8 mb 0.00 in0.0 mm 0.00 in0.0 mm 0.00 in0.0 mm
01:20 AM 44.6°F7.0°C 40.1°F4.5°C 84% 2.2 mph E3.5 kmh E 2.2 mph3.5 kmh 28.61 in968.8 mb 0.00 in0.0 mm 0.00 in0.0 mm 0.00 in0.0 mm
01:30 AM 44.6°F7.0°C 40.1°F4.5°C 84% 2.2 mph E3.5 kmh E 2.2 mph3.5 kmh 28.62 in969.2 mb 0.00 in0.0 mm 0.00 in0.0 mm 0.00 in0.0 mm
01:40 AM 44.6°F7.0°C 40.1°F4.5°C 84% 2.2 mph E3.5 kmh E 2.2 mph3.5 kmh 28.62 in969.2 mb 0.00 in0.0 mm 0.00 in0.0 mm 0.00 in0.0 mm
01:50 AM 44.6°F7.0°C 40.1°F4.5°C 84% 2.2 mph E3.5 kmh E 2.2 mph3.5 kmh 28.61 in968.8 mb 0.00 in0.0 mm 0.00 in0.0 mm 0.00 in0.0 mm
02:00 AM 44.6°F7.0°C 40.1°F4.5°C 84% 2.2 mph E3.5 kmh E 2.2 mph3.5 kmh 28.61 in968.8 mb 0.00 in0.0 mm 0.00 in0.0 mm 0.00 in0.0 mm
02:10 AM 44.6°F7.0°C 40.1°F4.5°C 84% 2.2 mph E3.5 kmh E 2.2 mph3.5 kmh 28.61 in968.8 mb 0.00 in0.0 mm 0.00 in0.0 mm 0.00 in0.0 mm
02:20 AM 44.6°F7.0°C 40.1°F4.5°C 84% 2.2 mph E3.5 kmh E 2.2 mph3.5 kmh 28.62 in969.2 mb 0.00 in0.0 mm 0.00 in0.0 mm 0.00 in0.0 mm
02:30 AM 44.6°F7.0°C 40.1°F4.5°C 84% 2.2 mph E3.5 kmh E 2.2 mph3.5 kmh 28.62 in969.2 mb 0.00 in0.0 mm 0.00 in0.0 mm 0.00 in0.0 mm
02:40 AM 44.6°F7.0°C 40.1°F4.5°C 84% 2.2 mph E3.5 kmh E 2.2 mph3.5 kmh 28.62 in969.2 mb 0.00 in0.0 mm 0.00 in0.0 mm 0.00 in0.0 mm
02:50 AM 44.6°F7.0°C 40.1°F4.5°C 84% 2.2 mph E3.5 kmh E 2.2 mph3.5 kmh 28.62 in969.2 mb 0.00 in0.0 mm 0.00 in0.0 mm 0.00 in0.0 mm
03:00 AM 44.6°F7.0°C 40.1°F4.5°C 84% 2.2 mph E3.5 kmh E 2.2 mph3.5 kmh 28.62 in969.2 mb 0.00 in0.0 mm 0.00 in0.0 mm 0.00 in0.0 mm
03:10 AM 44.6°F7.0°C 40.1°F4.5°C 84% 2.2 mph E3.5 kmh E 2.2 mph3.5 kmh 28.62 in969.2 mb 0.00 in0.0 mm 0.00 in0.0 mm 0.00 in0.0 mm
03:20 AM 44.6°F7.0°C 40.1°F4.5°C 84% 2.2 mph E3.5 kmh E 2.2 mph3.5 kmh 28.62 in969.2 mb 0.00 in0.0 mm 0.00 in0.0 mm 0.00 in0.0 mm
03:30 AM 44.6°F7.0°C 40.1°F4.5°C 84% 2.2 mph E3.5 kmh E 2.2 mph3.5 kmh 28.63 in969.5 mb 0.00 in0.0 mm 0.00 in0.0 mm 0.00 in0.0 mm
03:40 AM 44.6°F7.0°C 40.1°F4.5°C 84% 2.2 mph E3.5 kmh E 2.2 mph3.5 kmh 28.63 in969.5 mb 0.00 in0.0 mm 0.00 in0.0 mm 0.00 in0.0 mm
03:50 AM 44.6°F7.0°C 40.1°F4.5°C 84% 2.2 mph E3.5 kmh E 2.2 mph3.5 kmh 28.64 in969.9 mb 0.00 in0.0 mm 0.00 in0.0 mm 0.00 in0.0 mm
04:00 AM 44.6°F7.0°C 40.1°F4.5°C 84% 2.2 mph E3.5 kmh E 2.2 mph3.5 kmh 28.64 in969.9 mb 0.00 in0.0 mm 0.00 in0.0 mm 0.00 in0.0 mm
04:10 AM 44.6°F7.0°C 40.1°F4.5°C 84% 2.2 mph E3.5 kmh E 2.2 mph3.5 kmh 28.65 in970.2 mb 0.00 in0.0 mm 0.00 in0.0 mm 0.00 in0.0 mm
04:20 AM 44.6°F7.0°C 40.1°F4.5°C 84% 2.2 mph E3.5 kmh E 2.2 mph3.5 kmh 28.65 in970.2 mb 0.00 in0.0 mm 0.00 in0.0 mm 0.00 in0.0 mm
04:30 AM 44.6°F7.0°C 40.1°F4.5°C 84% 2.2 mph E3.5 kmh E 2.2 mph3.5 kmh 28.65 in970.2 mb 0.00 in0.0 mm 0.00 in0.0 mm 0.00 in0.0 mm
04:40 AM 44.6°F7.0°C 40.1°F4.5°C 84% 2.2 mph E3.5 kmh E 2.2 mph3.5 kmh 28.65 in970.2 mb 0.00 in0.0 mm 0.00 in0.0 mm 0.00 in0.0 mm
04:50 AM 44.6°F7.0°C 40.1°F4.5°C 84% 2.2 mph E3.5 kmh E 2.2 mph3.5 kmh 28.66 in970.5 mb 0.00 in0.0 mm 0.00 in0.0 mm 0.00 in0.0 mm
05:00 AM 44.6°F7.0°C 40.1°F4.5°C 84% 2.2 mph E3.5 kmh E 2.2 mph3.5 kmh 28.66 in970.5 mb 0.00 in0.0 mm 0.00 in0.0 mm 0.00 in0.0 mm
05:10 AM 44.6°F7.0°C 40.1°F4.5°C 84% 2.2 mph E3.5 kmh E 2.2 mph3.5 kmh 28.66 in970.5 mb 0.00 in0.0 mm 0.00 in0.0 mm 0.00 in0.0 mm
05:20 AM 44.6°F7.0°C 40.1°F4.5°C 84% 2.2 mph E3.5 kmh E 2.2 mph3.5 kmh 28.67 in970.9 mb 0.00 in0.0 mm 0.00 in0.0 mm 0.00 in0.0 mm
05:30 AM 44.6°F7.0°C 40.1°F4.5°C 84% 2.2 mph E3.5 kmh E 2.2 mph3.5 kmh 28.68 in971.2 mb 0.00 in0.0 mm 0.00 in0.0 mm 0.00 in0.0 mm
05:40 AM 44.6°F7.0°C 40.1°F4.5°C 84% 2.2 mph E3.5 kmh E 2.2 mph3.5 kmh 28.68 in971.2 mb 0.00 in0.0 mm 0.00 in0.0 mm 0.00 in0.0 mm
05:50 AM 44.6°F7.0°C 40.1°F4.5°C 84% 2.2 mph E3.5 kmh E 2.2 mph3.5 kmh 28.68 in971.2 mb 0.00 in0.0 mm 0.00 in0.0 mm 0.00 in0.0 mm
06:00 AM 44.6°F7.0°C 40.1°F4.5°C 84% 2.2 mph E3.5 kmh E 2.2 mph3.5 kmh 28.69 in971.6 mb 0.00 in0.0 mm 0.00 in0.0 mm 0.00 in0.0 mm
06:10 AM 44.6°F7.0°C 40.1°F4.5°C 84% 2.2 mph E3.5 kmh E 2.2 mph3.5 kmh 28.70 in971.9 mb 0.00 in0.0 mm 0.00 in0.0 mm 0.00 in0.0 mm
06:20 AM 44.6°F7.0°C 40.1°F4.5°C 84% 2.2 mph E3.5 kmh E 2.2 mph3.5 kmh 28.70 in971.9 mb 0.00 in0.0 mm 0.00 in0.0 mm 0.00 in0.0 mm
06:30 AM 44.6°F7.0°C 40.1°F4.5°C 84% 2.2 mph E3.5 kmh E 2.2 mph3.5 kmh 28.70 in971.9 mb 0.00 in0.0 mm 0.00 in0.0 mm 0.00 in0.0 mm
06:40 AM 44.6°F7.0°C 40.1°F4.5°C 84% 2.2 mph E3.5 kmh E 2.2 mph3.5 kmh 28.71 in972.2 mb 0.00 in0.0 mm 0.00 in0.0 mm 0.00 in0.0 mm
06:50 AM 44.6°F7.0°C 40.1°F4.5°C 84% 2.2 mph E3.5 kmh E 2.2 mph3.5 kmh 28.71 in972.2 mb 0.00 in0.0 mm 0.00 in0.0 mm 0.00 in0.0 mm
07:00 AM 44.6°F7.0°C 40.1°F4.5°C 84% 2.2 mph E3.5 kmh E 2.2 mph3.5 kmh 28.72 in972.6 mb 0.00 in0.0 mm 0.00 in0.0 mm 0.00 in0.0 mm
07:10 AM 44.6°F7.0°C 40.1°F4.5°C 84% 2.2 mph E3.5 kmh E 2.2 mph3.5 kmh 28.72 in972.6 mb 0.00 in0.0 mm 0.00 in0.0 mm 0.00 in0.0 mm
07:20 AM 44.2°F6.8°C 40.3°F4.6°C 86% 6.5 mph NE10.5 kmh NE 7.6 mph12.2 kmh 28.73 in972.9 mb 0.00 in0.0 mm 0.00 in0.0 mm 0.00 in0.0 mm
07:30 AM 44.2°F6.8°C 40.3°F4.6°C 86% 4.7 mph NE7.6 kmh NE 6.9 mph11.1 kmh 28.74 in973.2 mb 0.00 in0.0 mm 0.00 in0.0 mm 0.01 in0.3 mm
07:40 AM 44.2°F6.8°C 40.3°F4.6°C 86% 4.7 mph NE7.6 kmh NE 7.6 mph12.2 kmh 28.75 in973.6 mb 0.00 in0.0 mm 0.00 in0.0 mm 0.01 in0.3 mm
07:50 AM 44.4°F6.9°C 40.5°F4.7°C 86% 5.4 mph ENE8.7 kmh ENE 7.6 mph12.2 kmh 28.75 in973.6 mb 0.00 in0.0 mm 0.00 in0.0 mm 0.01 in0.3 mm
08:00 AM 44.4°F6.9°C 40.5°F4.7°C 86% 5.5 mph NE8.9 kmh NE 6.9 mph11.1 kmh 28.75 in973.6 mb 0.00 in0.0 mm 0.00 in0.0 mm 0.01 in0.3 mm
08:10 AM 44.8°F7.1°C 40.9°F4.9°C 86% 5.4 mph NE8.7 kmh NE 7.6 mph12.2 kmh 28.75 in973.6 mb 0.00 in0.0 mm 0.00 in0.0 mm 0.01 in0.3 mm
08:20 AM 45.1°F7.3°C 41.5°F5.3°C 87% 5.3 mph ENE8.5 kmh ENE 8.3 mph13.4 kmh 28.76 in973.9 mb 0.01 in0.3 mm 0.06 in1.5 mm 0.01 in0.3 mm
08:30 AM 45.0°F7.2°C 41.0°F5.0°C 86% 6.7 mph NE10.8 kmh NE 9.8 mph15.8 kmh 28.77 in974.3 mb 0.00 in0.0 mm 0.00 in0.0 mm 0.01 in0.3 mm
08:40 AM 45.0°F7.2°C 41.0°F5.0°C 86% 5.2 mph NE8.4 kmh NE 7.6 mph12.2 kmh 28.77 in974.3 mb 0.00 in0.0 mm 0.00 in0.0 mm 0.01 in0.3 mm
08:50 AM 45.1°F7.3°C 41.2°F5.1°C 86% 4.4 mph NE7.1 kmh NE 6.0 mph9.7 kmh 28.77 in974.3 mb 0.00 in0.0 mm 0.00 in0.0 mm 0.01 in0.3 mm
09:00 AM 45.1°F7.3°C 41.2°F5.1°C 86% 4.4 mph ENE7.1 kmh ENE 6.0 mph9.7 kmh 28.77 in974.3 mb 0.00 in0.0 mm 0.00 in0.0 mm 0.01 in0.3 mm
09:10 AM 45.1°F7.3°C 41.2°F5.1°C 86% 5.1 mph E8.2 kmh E 6.9 mph11.1 kmh 28.78 in974.6 mb 0.00 in0.0 mm 0.00 in0.0 mm 0.01 in0.3 mm
09:20 AM 45.1°F7.3°C 41.2°F5.1°C 86% 5.0 mph NE8.0 kmh NE 6.9 mph11.1 kmh 28.79 in974.9 mb 0.00 in0.0 mm 0.00 in0.0 mm 0.01 in0.3 mm
09:30 AM 45.0°F7.2°C 41.0°F5.0°C 86% 4.6 mph ENE7.4 kmh ENE 8.3 mph13.4 kmh 28.80 in975.3 mb 0.00 in0.0 mm 0.00 in0.0 mm 0.01 in0.3 mm
09:40 AM 45.1°F7.3°C 41.2°F5.1°C 86% 4.7 mph ENE7.6 kmh ENE 6.0 mph9.7 kmh 28.79 in974.9 mb 0.00 in0.0 mm 0.00 in0.0 mm 0.01 in0.3 mm
09:50 AM 45.3°F7.4°C 41.4°F5.2°C 86% 4.8 mph NE7.7 kmh NE 6.0 mph9.7 kmh 28.80 in975.3 mb 0.00 in0.0 mm 0.00 in0.0 mm 0.01 in0.3 mm
10:00 AM 45.5°F7.5°C 40.0°F4.4°C 81% 3.4 mph ENE5.5 kmh ENE 5.4 mph8.7 kmh 28.80 in975.3 mb 0.00 in0.0 mm 0.00 in0.0 mm 0.01 in0.3 mm
10:10 AM 45.7°F7.6°C 40.2°F4.6°C 81% 4.1 mph NE6.6 kmh NE 5.4 mph8.7 kmh 28.81 in975.6 mb 0.00 in0.0 mm 0.00 in0.0 mm 0.01 in0.3 mm
10:20 AM 45.7°F7.6°C 40.2°F4.6°C 81% 3.9 mph ENE6.3 kmh ENE 6.0 mph9.7 kmh 28.80 in975.3 mb 0.00 in0.0 mm 0.00 in0.0 mm 0.01 in0.3 mm
10:30 AM 46.2°F7.9°C 40.7°F4.8°C 81% 3.4 mph E5.5 kmh E 6.0 mph9.7 kmh 28.80 in975.3 mb 0.00 in0.0 mm 0.00 in0.0 mm 0.01 in0.3 mm
10:40 AM 46.9°F8.3°C 41.4°F5.2°C 81% 4.2 mph ENE6.8 kmh ENE 6.0 mph9.7 kmh 28.81 in975.6 mb 0.00 in0.0 mm 0.00 in0.0 mm 0.01 in0.3 mm
10:50 AM 46.8°F8.2°C 41.2°F5.1°C 81% 5.1 mph E8.2 kmh E 6.9 mph11.1 kmh 28.80 in975.3 mb 0.00 in0.0 mm 0.00 in0.0 mm 0.01 in0.3 mm
11:00 AM 46.6°F8.1°C 40.7°F4.8°C 80% 5.7 mph E9.2 kmh E 9.2 mph14.8 kmh 28.80 in975.3 mb 0.00 in0.0 mm 0.00 in0.0 mm 0.01 in0.3 mm
11:10 AM 46.2°F7.9°C 40.1°F4.5°C 79% 5.6 mph NE9.0 kmh NE 7.6 mph12.2 kmh 28.80 in975.3 mb 0.00 in0.0 mm 0.00 in0.0 mm 0.01 in0.3 mm
11:20 AM 46.2°F7.9°C 40.1°F4.5°C 79% 5.9 mph NE9.5 kmh NE 7.6 mph12.2 kmh 28.81 in975.6 mb 0.00 in0.0 mm 0.00 in0.0 mm 0.01 in0.3 mm
11:30 AM 46.6°F8.1°C 40.4°F4.7°C 79% 5.7 mph NE9.2 kmh NE 6.9 mph11.1 kmh 28.81 in975.6 mb 0.00 in0.0 mm 0.00 in0.0 mm 0.01 in0.3 mm
11:40 AM 46.8°F8.2°C 40.3°F4.6°C 78% 6.0 mph NE9.7 kmh NE 6.9 mph11.1 kmh 28.81 in975.6 mb 0.00 in0.0 mm 0.00 in0.0 mm 0.01 in0.3 mm
11:50 AM 47.1°F8.4°C 40.3°F4.6°C 77% 3.8 mph NE6.1 kmh NE 6.9 mph11.1 kmh 28.82 in976.0 mb 0.00 in0.0 mm 0.00 in0.0 mm 0.01 in0.3 mm
12:00 PM 46.9°F8.3°C 40.1°F4.5°C 77% 5.4 mph NE8.7 kmh NE 8.3 mph13.4 kmh 28.82 in976.0 mb 0.00 in0.0 mm 0.00 in0.0 mm 0.01 in0.3 mm
12:10 PM 46.8°F8.2°C 39.6°F4.2°C 76% 5.7 mph NE9.2 kmh NE 8.3 mph13.4 kmh 28.82 in976.0 mb 0.00 in0.0 mm 0.00 in0.0 mm 0.01 in0.3 mm
12:20 PM 46.9°F8.3°C 40.1°F4.5°C 77% 4.0 mph NE6.4 kmh NE 6.0 mph9.7 kmh 28.82 in976.0 mb 0.00 in0.0 mm 0.00 in0.0 mm 0.01 in0.3 mm
12:30 PM 47.3°F8.5°C 40.5°F4.7°C 77% 3.5 mph NE5.6 kmh NE 5.4 mph8.7 kmh 28.82 in976.0 mb 0.00 in0.0 mm 0.00 in0.0 mm 0.01 in0.3 mm
12:40 PM 47.8°F8.8°C 41.0°F5.0°C 77% 2.1 mph ENE3.4 kmh ENE 3.8 mph6.1 kmh 28.82 in976.0 mb 0.00 in0.0 mm 0.00 in0.0 mm 0.01 in0.3 mm
12:50 PM 47.8°F8.8°C 40.6°F4.8°C 76% 2.5 mph ENE4.0 kmh ENE 3.8 mph6.1 kmh 28.82 in976.0 mb 0.00 in0.0 mm 0.00 in0.0 mm 0.01 in0.3 mm
01:00 PM 48.2°F9.0°C 41.0°F5.0°C 76% 2.5 mph ENE4.0 kmh ENE 4.5 mph7.2 kmh 28.83 in976.3 mb 0.00 in0.0 mm 0.00 in0.0 mm 0.01 in0.3 mm
01:10 PM 48.7°F9.3°C 41.5°F5.3°C 76% 1.4 mph ENE2.3 kmh ENE 3.1 mph5.0 kmh 28.82 in976.0 mb 0.00 in0.0 mm 0.00 in0.0 mm 0.01 in0.3 mm
01:20 PM 48.7°F9.3°C 41.2°F5.1°C 75% 2.6 mph NE4.2 kmh NE 3.8 mph6.1 kmh 28.83 in976.3 mb 0.00 in0.0 mm 0.00 in0.0 mm 0.01 in0.3 mm
01:30 PM 48.7°F9.3°C 40.8°F4.9°C 74% 1.8 mph NNE2.9 kmh NNE 4.5 mph7.2 kmh 28.84 in976.6 mb 0.00 in0.0 mm 0.00 in0.0 mm 0.01 in0.3 mm
01:40 PM 48.6°F9.2°C 40.7°F4.8°C 74% 1.1 mph N1.8 kmh N 3.1 mph5.0 kmh 28.84 in976.6 mb 0.00 in0.0 mm 0.00 in0.0 mm 0.01 in0.3 mm
01:50 PM 48.4°F9.1°C 40.1°F4.5°C 73% 2.5 mph NNE4.0 kmh NNE 3.1 mph5.0 kmh 28.84 in976.6 mb 0.00 in0.0 mm 0.00 in0.0 mm 0.01 in0.3 mm
02:00 PM 48.2°F9.0°C 40.3°F4.6°C 74% 2.1 mph NE3.4 kmh NE 3.8 mph6.1 kmh 28.84 in976.6 mb 0.00 in0.0 mm 0.00 in0.0 mm 0.01 in0.3 mm
02:10 PM 48.2°F9.0°C 40.3°F4.6°C 74% 1.7 mph NNE2.7 kmh NNE 3.1 mph5.0 kmh 28.84 in976.6 mb 0.00 in0.0 mm 0.00 in0.0 mm 0.01 in0.3 mm
02:20 PM 48.0°F8.9°C 40.1°F4.5°C 74% 2.0 mph NE3.2 kmh NE 3.8 mph6.1 kmh 28.84 in976.6 mb 0.00 in0.0 mm 0.00 in0.0 mm 0.01 in0.3 mm
02:30 PM 47.8°F8.8°C 40.0°F4.4°C 74% Calm Calm -- 28.84 in976.6 mb 0.00 in0.0 mm 0.00 in0.0 mm 0.01 in0.3 mm
02:40 PM 48.2°F9.0°C 40.7°F4.8°C 75% Calm Calm -- 28.84 in976.6 mb 0.00 in0.0 mm 0.00 in0.0 mm 0.01 in0.3 mm
02:50 PM 48.2°F9.0°C 40.7°F4.8°C 75% Calm Calm -- 28.84 in976.6 mb 0.00 in0.0 mm 0.00 in0.0 mm 0.01 in0.3 mm
03:00 PM 48.2°F9.0°C 40.3°F4.6°C 74% 1.6 mph N2.6 kmh N 3.8 mph6.1 kmh 28.86 in977.3 mb 0.00 in0.0 mm 0.00 in0.0 mm 0.01 in0.3 mm
03:10 PM 47.8°F8.8°C 40.0°F4.4°C 74% 2.6 mph N4.2 kmh N 5.4 mph8.7 kmh 28.86 in977.3 mb 0.00 in0.0 mm 0.00 in0.0 mm 0.01 in0.3 mm
03:20 PM 47.5°F8.6°C 39.6°F4.2°C 74% 4.4 mph NW7.1 kmh NW 7.6 mph12.2 kmh 28.86 in977.3 mb 0.00 in0.0 mm 0.00 in0.0 mm 0.01 in0.3 mm
03:30 PM 46.9°F8.3°C 39.1°F3.9°C 74% 4.2 mph NNW6.8 kmh NNW 6.0 mph9.7 kmh 28.86 in977.3 mb 0.00 in0.0 mm 0.00 in0.0 mm 0.01 in0.3 mm
03:40 PM 46.6°F8.1°C 38.7°F3.7°C 74% 4.5 mph NW7.2 kmh NW 6.9 mph11.1 kmh 28.86 in977.3 mb 0.00 in0.0 mm 0.00 in0.0 mm 0.01 in0.3 mm
03:50 PM 46.4°F8.0°C 38.9°F3.8°C 75% 2.7 mph NNW4.3 kmh NNW 4.5 mph7.2 kmh 28.86 in977.3 mb 0.00 in0.0 mm 0.00 in0.0 mm 0.01 in0.3 mm
04:00 PM 46.4°F8.0°C 39.3°F4.1°C 76% 2.7 mph NE4.3 kmh NE 3.8 mph6.1 kmh 28.87 in977.7 mb 0.00 in0.0 mm 0.00 in0.0 mm 0.01 in0.3 mm
04:10 PM 46.6°F8.1°C 39.4°F4.1°C 76% 2.4 mph NE3.9 kmh NE 4.5 mph7.2 kmh 28.87 in977.7 mb 0.00 in0.0 mm 0.00 in0.0 mm 0.01 in0.3 mm
04:20 PM 46.4°F8.0°C 39.6°F4.2°C 77% 3.4 mph NE5.5 kmh NE 4.5 mph7.2 kmh 28.87 in977.7 mb 0.00 in0.0 mm 0.00 in0.0 mm 0.01 in0.3 mm
04:30 PM 46.4°F8.0°C 39.9°F4.4°C 78% 4.4 mph E7.1 kmh E 5.4 mph8.7 kmh 28.88 in978.0 mb 0.00 in0.0 mm 0.00 in0.0 mm 0.01 in0.3 mm
04:40 PM 46.4°F8.0°C 39.9°F4.4°C 78% 3.4 mph NE5.5 kmh NE 5.4 mph8.7 kmh 28.88 in978.0 mb 0.00 in0.0 mm 0.00 in0.0 mm 0.01 in0.3 mm
04:50 PM 46.4°F8.0°C 39.9°F4.4°C 78% 3.0 mph ENE4.8 kmh ENE 3.8 mph6.1 kmh 28.88 in978.0 mb 0.00 in0.0 mm 0.00 in0.0 mm 0.01 in0.3 mm
05:00 PM 46.4°F8.0°C 39.9°F4.4°C 78% 1.7 mph NE2.7 kmh NE 3.1 mph5.0 kmh 28.88 in978.0 mb 0.00 in0.0 mm 0.00 in0.0 mm 0.01 in0.3 mm
05:10 PM 46.4°F8.0°C 40.2°F4.6°C 79% 1.3 mph NE2.1 kmh NE 3.1 mph5.0 kmh 28.88 in978.0 mb 0.00 in0.0 mm 0.00 in0.0 mm 0.01 in0.3 mm
05:20 PM 46.4°F8.0°C 40.2°F4.6°C 79% 0.8 mph NE1.3 kmh NE 2.2 mph3.5 kmh 28.89 in978.3 mb 0.00 in0.0 mm 0.00 in0.0 mm 0.01 in0.3 mm
05:30 PM 46.4°F8.0°C 40.2°F4.6°C 79% Calm Calm -- 28.89 in978.3 mb 0.00 in0.0 mm 0.00 in0.0 mm 0.01 in0.3 mm
05:40 PM 46.4°F8.0°C 40.2°F4.6°C 79% Calm Calm -- 28.89 in978.3 mb 0.00 in0.0 mm 0.00 in0.0 mm 0.01 in0.3 mm
05:50 PM 46.4°F8.0°C 40.2°F4.6°C 79% Calm Calm -- 28.89 in978.3 mb 0.00 in0.0 mm 0.00 in0.0 mm 0.01 in0.3 mm
06:00 PM 46.4°F8.0°C 40.2°F4.6°C 79% Calm Calm -- 28.89 in978.3 mb 0.00 in0.0 mm 0.00 in0.0 mm 0.01 in0.3 mm
06:10 PM 46.4°F8.0°C 40.2°F4.6°C 79% Calm Calm -- 28.90 in978.7 mb 0.00 in0.0 mm 0.00 in0.0 mm 0.01 in0.3 mm
06:20 PM 46.4°F8.0°C 40.2°F4.6°C 79% Calm Calm -- 28.91 in979.0 mb 0.00 in0.0 mm 0.00 in0.0 mm 0.01 in0.3 mm
06:30 PM 46.4°F8.0°C 40.2°F4.6°C 79% Calm Calm -- 28.90 in978.7 mb 0.00 in0.0 mm 0.00 in0.0 mm 0.01 in0.3 mm
06:40 PM 46.4°F8.0°C 40.2°F4.6°C 79% Calm Calm -- 28.91 in979.0 mb 0.00 in0.0 mm 0.00 in0.0 mm 0.01 in0.3 mm
06:50 PM 46.4°F8.0°C 40.2°F4.6°C 79% Calm Calm -- 28.91 in979.0 mb 0.00 in0.0 mm 0.00 in0.0 mm 0.01 in0.3 mm
07:00 PM 46.4°F8.0°C 40.2°F4.6°C 79% Calm Calm -- 28.91 in979.0 mb 0.00 in0.0 mm 0.00 in0.0 mm 0.01 in0.3 mm
07:10 PM 46.4°F8.0°C 40.2°F4.6°C 79% Calm Calm -- 28.92 in979.3 mb 0.00 in0.0 mm 0.00 in0.0 mm 0.01 in0.3 mm
07:20 PM 46.4°F8.0°C 40.2°F4.6°C 79% Calm Calm -- 28.92 in979.3 mb 0.00 in0.0 mm 0.00 in0.0 mm 0.01 in0.3 mm
07:30 PM 46.4°F8.0°C 40.2°F4.6°C 79% Calm Calm -- 28.93 in979.7 mb 0.00 in0.0 mm 0.00 in0.0 mm 0.01 in0.3 mm
07:40 PM 46.4°F8.0°C 40.2°F4.6°C 79% Calm Calm -- 28.93 in979.7 mb 0.00 in0.0 mm 0.00 in0.0 mm 0.01 in0.3 mm
07:50 PM 46.4°F8.0°C 40.2°F4.6°C 79% Calm Calm -- 28.94 in980.0 mb 0.00 in0.0 mm 0.00 in0.0 mm 0.01 in0.3 mm
08:00 PM 46.4°F8.0°C 40.2°F4.6°C 79% Calm Calm -- 28.94 in980.0 mb 0.00 in0.0 mm 0.00 in0.0 mm 0.01 in0.3 mm
08:10 PM 46.4°F8.0°C 40.2°F4.6°C 79% Calm Calm -- 28.94 in980.0 mb 0.00 in0.0 mm 0.00 in0.0 mm 0.01 in0.3 mm
08:20 PM 46.4°F8.0°C 40.2°F4.6°C 79% Calm Calm -- 28.94 in980.0 mb 0.00 in0.0 mm 0.00 in0.0 mm 0.01 in0.3 mm
08:30 PM 46.4°F8.0°C 40.2°F4.6°C 79% Calm Calm -- 28.94 in980.0 mb 0.00 in0.0 mm 0.00 in0.0 mm 0.01 in0.3 mm
08:40 PM 46.4°F8.0°C 40.2°F4.6°C 79% Calm Calm -- 28.95 in980.4 mb 0.00 in0.0 mm 0.00 in0.0 mm 0.01 in0.3 mm
08:50 PM 46.4°F8.0°C 40.2°F4.6°C 79% Calm Calm -- 28.95 in980.4 mb 0.00 in0.0 mm 0.00 in0.0 mm 0.01 in0.3 mm
09:00 PM 46.4°F8.0°C 40.2°F4.6°C 79% Calm Calm -- 28.95 in980.4 mb 0.00 in0.0 mm 0.00 in0.0 mm 0.01 in0.3 mm
09:10 PM 46.4°F8.0°C 40.2°F4.6°C 79% Calm Calm -- 28.95 in980.4 mb 0.00 in0.0 mm 0.00 in0.0 mm 0.01 in0.3 mm
09:20 PM 46.4°F8.0°C 40.2°F4.6°C 79% Calm Calm -- 28.96 in980.7 mb 0.00 in0.0 mm 0.00 in0.0 mm 0.01 in0.3 mm
09:30 PM 46.4°F8.0°C 40.2°F4.6°C 79% Calm Calm -- 28.96 in980.7 mb 0.00 in0.0 mm 0.00 in0.0 mm 0.01 in0.3 mm
09:40 PM 46.4°F8.0°C 40.2°F4.6°C 79% Calm Calm -- 28.96 in980.7 mb 0.00 in0.0 mm 0.00 in0.0 mm 0.01 in0.3 mm
09:50 PM 46.4°F8.0°C 40.2°F4.6°C 79% Calm Calm -- 28.96 in980.7 mb 0.00 in0.0 mm 0.00 in0.0 mm 0.01 in0.3 mm
10:00 PM 46.4°F8.0°C 40.2°F4.6°C 79% Calm Calm -- 28.97 in981.0 mb 0.00 in0.0 mm 0.00 in0.0 mm 0.01 in0.3 mm
10:10 PM 46.4°F8.0°C 40.2°F4.6°C 79% Calm Calm -- 28.97 in981.0 mb 0.00 in0.0 mm 0.00 in0.0 mm 0.01 in0.3 mm
10:20 PM 46.4°F8.0°C 40.2°F4.6°C 79% Calm Calm -- 28.97 in981.0 mb 0.00 in0.0 mm 0.00 in0.0 mm 0.01 in0.3 mm
10:30 PM 46.4°F8.0°C 40.2°F4.6°C 79% Calm Calm -- 28.97 in981.0 mb 0.00 in0.0 mm 0.00 in0.0 mm 0.01 in0.3 mm
10:40 PM 46.4°F8.0°C 40.2°F4.6°C 79% Calm Calm -- 28.98 in981.4 mb 0.00 in0.0 mm 0.00 in0.0 mm 0.01 in0.3 mm
10:50 PM 46.4°F8.0°C 40.2°F4.6°C 79% Calm Calm -- 28.98 in981.4 mb 0.00 in0.0 mm 0.00 in0.0 mm 0.01 in0.3 mm
11:00 PM 46.4°F8.0°C 40.2°F4.6°C 79% Calm Calm -- 28.97 in981.0 mb 0.00 in0.0 mm 0.00 in0.0 mm 0.01 in0.3 mm
11:10 PM 46.4°F8.0°C 40.2°F4.6°C 79% Calm Calm -- 28.97 in981.0 mb 0.00 in0.0 mm 0.00 in0.0 mm 0.01 in0.3 mm
11:20 PM 46.4°F8.0°C 40.2°F4.6°C 79% Calm Calm -- 28.97 in981.0 mb 0.00 in0.0 mm 0.00 in0.0 mm 0.01 in0.3 mm
11:30 PM 46.4°F8.0°C 40.2°F4.6°C 79% Calm Calm -- 28.98 in981.4 mb 0.00 in0.0 mm 0.00 in0.0 mm 0.01 in0.3 mm
11:40 PM 46.4°F8.0°C 40.2°F4.6°C 79% Calm Calm -- 28.97 in981.0 mb 0.00 in0.0 mm 0.00 in0.0 mm 0.01 in0.3 mm
11:50 PM 46.4°F8.0°C 40.2°F4.6°C 79% Calm Calm -- 28.97 in981.0 mb 0.00 in0.0 mm 0.00 in0.0 mm 0.01 in0.3 mm